createdAt,value
2017-11-11T00:00:53.089Z,990.9
2017-11-11T00:01:53.737Z,991.0
2017-11-11T00:02:54.387Z,991.0
2017-11-11T00:03:55.037Z,991.0
2017-11-11T00:04:55.687Z,991.0
2017-11-11T00:05:56.339Z,991.0
2017-11-11T00:06:56.987Z,990.9
2017-11-11T00:07:57.636Z,991.0
2017-11-11T00:08:58.283Z,991.0
2017-11-11T00:09:58.932Z,991.0
2017-11-11T00:10:59.581Z,991.0
2017-11-11T00:12:00.230Z,991.0
2017-11-11T00:13:00.878Z,991.0
2017-11-11T00:14:01.529Z,991.0
2017-11-11T00:15:02.179Z,991.0
2017-11-11T00:16:02.827Z,991.0
2017-11-11T00:17:03.475Z,991.0
2017-11-11T00:18:04.162Z,991.0
2017-11-11T00:19:04.811Z,991.0
2017-11-11T00:20:05.461Z,991.0
2017-11-11T00:21:06.109Z,991.0
2017-11-11T00:22:06.758Z,991.0
2017-11-11T00:23:07.406Z,991.0
2017-11-11T00:24:08.055Z,991.0
2017-11-11T00:25:08.706Z,991.1
2017-11-11T00:26:09.354Z,991.0
2017-11-11T00:27:10.005Z,991.0
2017-11-11T00:28:10.655Z,991.1
2017-11-11T00:29:11.303Z,991.1
2017-11-11T00:30:11.955Z,991.1
2017-11-11T00:31:12.639Z,991.0
2017-11-11T00:32:13.288Z,991.0
2017-11-11T00:33:13.937Z,991.0
2017-11-11T00:34:14.586Z,991.1
2017-11-11T00:35:15.235Z,991.1
2017-11-11T00:36:15.885Z,991.1
2017-11-11T00:37:16.532Z,991.1
2017-11-11T00:38:17.184Z,991.1
2017-11-11T00:39:17.832Z,991.2
2017-11-11T00:40:18.483Z,991.1
2017-11-11T00:41:19.133Z,991.1
2017-11-11T00:42:19.786Z,991.2
2017-11-11T00:43:20.433Z,991.1
2017-11-11T00:44:21.081Z,991.1
2017-11-11T00:45:21.732Z,991.2
2017-11-11T00:46:22.381Z,991.2
2017-11-11T00:47:23.030Z,991.2
2017-11-11T00:48:23.681Z,991.2
2017-11-11T00:49:24.331Z,991.1
2017-11-11T00:50:24.980Z,991.1
2017-11-11T00:51:25.629Z,991.1
2017-11-11T00:52:26.283Z,991.1
2017-11-11T00:53:26.964Z,991.1
2017-11-11T00:54:27.617Z,991.1
2017-11-11T00:55:28.262Z,991.2
2017-11-11T00:56:28.912Z,991.2
2017-11-11T00:57:29.559Z,991.3
2017-11-11T00:58:30.209Z,991.2
2017-11-11T00:59:30.859Z,991.2
2017-11-11T01:00:31.507Z,991.2
2017-11-11T01:01:32.159Z,991.2
2017-11-11T01:02:32.808Z,991.1
2017-11-11T01:03:33.455Z,991.2
2017-11-11T01:04:34.105Z,991.2
2017-11-11T01:05:34.756Z,991.1
2017-11-11T01:06:35.403Z,991.1
2017-11-11T01:07:36.054Z,991.2
2017-11-11T01:08:36.708Z,991.1
2017-11-11T01:09:37.352Z,991.1
2017-11-11T01:10:38.002Z,991.1
2017-11-11T01:11:38.650Z,991.1
2017-11-11T01:12:39.299Z,991.1
2017-11-11T01:13:39.949Z,991.1
2017-11-11T01:14:40.597Z,991.1
2017-11-11T01:15:41.248Z,991.1
2017-11-11T01:16:41.896Z,991.1
2017-11-11T01:17:42.545Z,991.1
2017-11-11T01:18:43.196Z,991.2
2017-11-11T01:19:43.846Z,991.1
2017-11-11T01:20:44.531Z,991.1
2017-11-11T01:21:45.178Z,991.1
2017-11-11T01:22:45.919Z,991.1
2017-11-11T01:23:46.494Z,991.1
2017-11-11T01:24:47.148Z,991.1
2017-11-11T01:25:47.829Z,991.0
2017-11-11T01:26:48.483Z,991.1
2017-11-11T01:27:49.129Z,991.0
2017-11-11T01:28:49.777Z,991.1
2017-11-11T01:29:50.428Z,991.0
2017-11-11T01:30:51.075Z,991.0
2017-11-11T01:31:51.726Z,991.0
2017-11-11T01:32:52.375Z,991.0
2017-11-11T01:33:53.026Z,991.0
2017-11-11T01:34:53.673Z,991.0
2017-11-11T01:35:54.323Z,991.0
2017-11-11T01:36:54.972Z,991.0
2017-11-11T01:37:55.620Z,991.0
2017-11-11T01:38:56.268Z,991.0
2017-11-11T01:39:56.917Z,991.0
2017-11-11T01:40:57.565Z,991.0
2017-11-11T01:41:58.214Z,991.0
2017-11-11T01:42:58.861Z,991.0
2017-11-11T01:43:59.512Z,991.0
2017-11-11T01:45:00.161Z,991.0
2017-11-11T01:46:00.810Z,990.9
2017-11-11T01:47:01.459Z,991.0
2017-11-11T01:48:02.108Z,991.0
2017-11-11T01:49:02.760Z,991.0
2017-11-11T01:50:03.407Z,991.0
2017-11-11T01:51:04.057Z,991.0
2017-11-11T01:52:04.743Z,991.0
2017-11-11T01:53:05.427Z,991.0
2017-11-11T01:54:06.077Z,991.0
2017-11-11T01:55:06.726Z,990.9
2017-11-11T01:56:07.374Z,991.0
2017-11-11T01:57:08.026Z,990.9
2017-11-11T01:58:08.677Z,990.9
2017-11-11T01:59:09.323Z,990.9
2017-11-11T02:00:09.974Z,990.9
2017-11-11T02:01:10.621Z,990.9
2017-11-11T02:02:11.270Z,990.9
2017-11-11T02:03:11.919Z,990.9
2017-11-11T02:04:12.568Z,990.9
2017-11-11T02:05:13.266Z,990.9
2017-11-11T02:06:13.917Z,990.8
2017-11-11T02:07:14.563Z,990.8
2017-11-11T02:08:15.213Z,990.8
2017-11-11T02:09:15.862Z,990.8
2017-11-11T02:10:16.509Z,990.8
2017-11-11T02:11:17.161Z,990.8
2017-11-11T02:12:17.809Z,990.8
2017-11-11T02:13:18.463Z,990.8
2017-11-11T02:14:19.153Z,990.9
2017-11-11T02:15:19.804Z,990.8
2017-11-11T02:16:20.482Z,990.9
2017-11-11T02:17:21.133Z,990.8
2017-11-11T02:18:21.784Z,990.8
2017-11-11T02:19:22.431Z,990.8
2017-11-11T02:20:23.086Z,990.8
2017-11-11T02:21:23.771Z,990.8
2017-11-11T02:22:24.455Z,990.8
2017-11-11T02:23:25.105Z,990.8
2017-11-11T02:24:25.755Z,990.8
2017-11-11T02:25:26.404Z,990.8
2017-11-11T02:26:27.056Z,990.7
2017-11-11T02:27:27.737Z,990.8
2017-11-11T02:28:28.423Z,990.8
2017-11-11T02:29:29.072Z,990.8
2017-11-11T02:30:29.720Z,990.7
2017-11-11T02:31:30.369Z,990.7
2017-11-11T02:32:31.021Z,990.7
2017-11-11T02:33:31.669Z,990.7
2017-11-11T02:34:32.317Z,990.7
2017-11-11T02:35:32.970Z,990.7
2017-11-11T02:36:33.616Z,990.7
2017-11-11T02:37:34.265Z,990.7
2017-11-11T02:38:34.913Z,990.6
2017-11-11T02:39:35.564Z,990.6
2017-11-11T02:40:36.210Z,990.6
2017-11-11T02:41:36.858Z,990.6
2017-11-11T02:42:37.510Z,990.7
2017-11-11T02:43:38.159Z,990.6
2017-11-11T02:44:38.809Z,990.6
2017-11-11T02:45:39.459Z,990.6
2017-11-11T02:46:40.108Z,990.6
2017-11-11T02:47:40.756Z,990.6
2017-11-11T02:48:41.405Z,990.5
2017-11-11T02:49:42.054Z,990.5
2017-11-11T02:50:42.703Z,990.5
2017-11-11T02:51:43.353Z,990.5
2017-11-11T02:52:44.012Z,990.5
2017-11-11T02:53:44.666Z,990.5
2017-11-11T02:54:45.353Z,990.5
2017-11-11T02:55:45.999Z,990.5
2017-11-11T02:56:46.650Z,990.5
2017-11-11T02:57:47.299Z,990.5
2017-11-11T02:58:47.949Z,990.5
2017-11-11T02:59:48.598Z,990.5
2017-11-11T03:00:49.252Z,990.4
2017-11-11T03:01:49.905Z,990.4
2017-11-11T03:02:50.552Z,990.4
2017-11-11T03:03:51.192Z,990.4
2017-11-11T03:04:51.880Z,990.4
2017-11-11T03:05:52.532Z,990.4
2017-11-11T03:06:53.177Z,990.4
2017-11-11T03:07:53.828Z,990.4
2017-11-11T03:08:54.477Z,990.4
2017-11-11T03:09:55.127Z,990.4
2017-11-11T03:10:55.825Z,990.4
2017-11-11T03:11:56.476Z,990.4
2017-11-11T03:12:57.125Z,990.4
2017-11-11T03:13:57.776Z,990.4
2017-11-11T03:14:58.425Z,990.4
2017-11-11T03:15:59.160Z,990.5
2017-11-11T03:16:59.828Z,990.4
2017-11-11T03:18:00.462Z,990.4
2017-11-11T03:19:01.146Z,990.4
2017-11-11T03:20:01.797Z,990.4
2017-11-11T03:21:02.446Z,990.4
2017-11-11T03:22:03.096Z,990.4
2017-11-11T03:23:03.745Z,990.4
2017-11-11T03:24:04.396Z,990.4
2017-11-11T03:25:05.045Z,990.4
2017-11-11T03:26:05.694Z,990.4
2017-11-11T03:27:06.345Z,990.3
2017-11-11T03:28:06.994Z,990.4
2017-11-11T03:29:07.643Z,990.4
2017-11-11T03:30:08.294Z,990.3
2017-11-11T03:31:08.943Z,990.4
2017-11-11T03:32:09.590Z,990.4
2017-11-11T03:33:10.283Z,990.3
2017-11-11T03:34:10.891Z,990.3
2017-11-11T03:35:11.540Z,990.3
2017-11-11T03:36:12.188Z,990.3
2017-11-11T03:37:12.840Z,990.3
2017-11-11T03:38:13.495Z,990.3
2017-11-11T03:39:14.137Z,990.3
2017-11-11T03:40:14.787Z,990.3
2017-11-11T03:41:15.435Z,990.3
2017-11-11T03:42:16.084Z,990.2
2017-11-11T03:43:16.733Z,990.3
2017-11-11T03:44:17.383Z,990.3
2017-11-11T03:45:18.033Z,990.3
2017-11-11T03:46:18.683Z,990.3
2017-11-11T03:47:19.332Z,990.3
2017-11-11T03:48:19.982Z,990.3
2017-11-11T03:49:20.632Z,990.3
2017-11-11T03:50:21.281Z,990.3
2017-11-11T03:51:21.933Z,990.3
2017-11-11T03:52:22.583Z,990.4
2017-11-11T03:53:23.231Z,990.3
2017-11-11T03:54:23.881Z,990.4
2017-11-11T03:55:24.529Z,990.4
2017-11-11T03:56:25.180Z,990.4
2017-11-11T03:57:25.829Z,990.3
2017-11-11T03:58:26.478Z,990.4
2017-11-11T03:59:27.133Z,990.4
2017-11-11T04:00:27.775Z,990.4
2017-11-11T04:01:28.426Z,990.4
2017-11-11T04:02:29.074Z,990.4
2017-11-11T04:03:29.724Z,990.4
2017-11-11T04:04:30.374Z,990.4
2017-11-11T04:05:31.024Z,990.4
2017-11-11T04:06:31.675Z,990.4
2017-11-11T04:07:32.323Z,990.4
2017-11-11T04:08:32.976Z,990.4
2017-11-11T04:09:33.623Z,990.4
2017-11-11T04:10:34.278Z,990.4
2017-11-11T04:11:34.946Z,990.4
2017-11-11T04:12:35.573Z,990.4
2017-11-11T04:13:36.224Z,990.4
2017-11-11T04:14:36.872Z,990.4
2017-11-11T04:15:37.523Z,990.4
2017-11-11T04:16:38.174Z,990.4
2017-11-11T04:17:38.823Z,990.3
2017-11-11T04:18:39.473Z,990.3
2017-11-11T04:19:40.122Z,990.2
2017-11-11T04:20:40.808Z,990.2
2017-11-11T04:21:41.459Z,990.3
2017-11-11T04:22:42.108Z,990.2
2017-11-11T04:23:42.757Z,990.2
2017-11-11T04:24:43.407Z,990.2
2017-11-11T04:25:44.054Z,990.2
2017-11-11T04:26:44.703Z,990.2
2017-11-11T04:27:45.351Z,990.2
2017-11-11T04:28:46.002Z,990.2
2017-11-11T04:29:46.650Z,990.1
2017-11-11T04:30:47.301Z,990.2
2017-11-11T04:31:47.951Z,990.2
2017-11-11T04:32:48.599Z,990.2
2017-11-11T04:33:49.248Z,990.2
2017-11-11T04:34:49.896Z,990.2
2017-11-11T04:35:50.545Z,990.2
2017-11-11T04:36:51.193Z,990.2
2017-11-11T04:37:51.841Z,990.1
2017-11-11T04:38:52.492Z,990.1
2017-11-11T04:39:53.140Z,990.1
2017-11-11T04:40:53.790Z,990.0
2017-11-11T04:41:54.441Z,990.0
2017-11-11T04:42:55.092Z,990.0
2017-11-11T04:43:55.776Z,990.1
2017-11-11T04:44:56.426Z,990.0
2017-11-11T04:45:57.074Z,990.1
2017-11-11T04:46:57.725Z,990.1
2017-11-11T04:47:58.371Z,990.1
2017-11-11T04:48:59.021Z,990.1
2017-11-11T04:49:59.670Z,990.2
2017-11-11T04:51:00.319Z,990.1
2017-11-11T04:52:00.980Z,990.0
2017-11-11T04:53:01.655Z,990.1
2017-11-11T04:54:02.304Z,990.0
2017-11-11T04:55:02.954Z,990.0
2017-11-11T04:56:03.606Z,990.0
2017-11-11T04:57:04.251Z,990.0
2017-11-11T04:58:04.901Z,990.1
2017-11-11T04:59:05.549Z,990.1
2017-11-11T05:00:06.199Z,990.1
2017-11-11T05:01:06.849Z,990.0
2017-11-11T05:02:07.498Z,990.1
2017-11-11T05:03:08.146Z,990.1
2017-11-11T05:04:08.833Z,990.0
2017-11-11T05:05:09.480Z,990.1
2017-11-11T05:06:10.131Z,990.1
2017-11-11T05:07:10.780Z,990.1
2017-11-11T05:08:11.430Z,990.1
2017-11-11T05:09:12.080Z,990.1
2017-11-11T05:10:12.728Z,990.1
2017-11-11T05:11:13.415Z,990.2
2017-11-11T05:12:14.113Z,990.2
2017-11-11T05:13:14.762Z,990.1
2017-11-11T05:14:15.412Z,990.2
2017-11-11T05:15:16.067Z,990.2
2017-11-11T05:16:16.710Z,990.2
2017-11-11T05:17:17.396Z,990.1
2017-11-11T05:18:18.049Z,990.1
2017-11-11T05:19:18.730Z,990.2
2017-11-11T05:20:19.379Z,990.2
2017-11-11T05:21:20.031Z,990.3
2017-11-11T05:22:20.678Z,990.2
2017-11-11T05:23:21.325Z,990.2
2017-11-11T05:24:21.977Z,990.1
2017-11-11T05:25:22.626Z,990.1
2017-11-11T05:26:23.274Z,990.1
2017-11-11T05:27:23.945Z,990.1
2017-11-11T05:28:24.573Z,990.0
2017-11-11T05:29:25.221Z,990.0
2017-11-11T05:30:25.871Z,990.1
2017-11-11T05:31:26.522Z,990.0
2017-11-11T05:32:27.170Z,990.0
2017-11-11T05:33:27.820Z,990.0
2017-11-11T05:34:28.469Z,990.0
2017-11-11T05:35:29.121Z,990.0
2017-11-11T05:36:29.768Z,989.9
2017-11-11T05:37:30.418Z,989.9
2017-11-11T05:38:31.068Z,989.9
2017-11-11T05:39:31.715Z,989.9
2017-11-11T05:40:32.365Z,989.9
2017-11-11T05:41:33.017Z,989.9
2017-11-11T05:42:33.666Z,989.8
2017-11-11T05:43:34.314Z,989.8
2017-11-11T05:44:34.964Z,989.8
2017-11-11T05:45:35.613Z,989.8
2017-11-11T05:46:36.263Z,989.7
2017-11-11T05:47:36.911Z,989.7
2017-11-11T05:48:37.561Z,989.6
2017-11-11T05:49:38.210Z,989.7
2017-11-11T05:50:38.858Z,989.6
2017-11-11T05:51:39.509Z,989.7
2017-11-11T05:52:40.158Z,989.6
2017-11-11T05:53:40.807Z,989.6
2017-11-11T05:54:41.457Z,989.6
2017-11-11T05:55:42.140Z,989.6
2017-11-11T05:56:42.790Z,989.6
2017-11-11T05:57:43.449Z,989.6
2017-11-11T05:58:44.128Z,989.6
2017-11-11T05:59:44.808Z,989.6
2017-11-11T06:00:45.459Z,989.6
2017-11-11T06:01:46.107Z,989.6
2017-11-11T06:02:46.756Z,989.5
2017-11-11T06:03:47.414Z,989.5
2017-11-11T06:04:48.058Z,989.5
2017-11-11T06:05:48.708Z,989.4
2017-11-11T06:06:49.357Z,989.4
2017-11-11T06:07:50.025Z,989.5
2017-11-11T06:08:50.658Z,989.4
2017-11-11T06:09:51.310Z,989.5
2017-11-11T06:10:51.958Z,989.5
2017-11-11T06:11:52.609Z,989.5
2017-11-11T06:12:53.258Z,989.5
2017-11-11T06:13:53.910Z,989.5
2017-11-11T06:14:54.560Z,989.4
2017-11-11T06:15:55.209Z,989.4
2017-11-11T06:16:55.860Z,989.4
2017-11-11T06:17:56.511Z,989.4
2017-11-11T06:18:57.160Z,989.4
2017-11-11T06:19:57.809Z,989.4
2017-11-11T06:20:58.459Z,989.5
2017-11-11T06:21:59.109Z,989.5
2017-11-11T06:22:59.760Z,989.5
2017-11-11T06:24:00.413Z,989.5
2017-11-11T06:25:01.064Z,989.4
2017-11-11T06:26:01.717Z,989.4
2017-11-11T06:27:02.390Z,989.4
2017-11-11T06:28:03.019Z,989.4
2017-11-11T06:29:03.669Z,989.5
2017-11-11T06:30:04.320Z,989.4
2017-11-11T06:31:04.973Z,989.4
2017-11-11T06:32:05.623Z,989.4
2017-11-11T06:33:06.275Z,989.4
2017-11-11T06:34:06.926Z,989.4
2017-11-11T06:35:07.578Z,989.4
2017-11-11T06:36:08.230Z,989.4
2017-11-11T06:37:08.880Z,989.5
2017-11-11T06:38:09.567Z,989.4
2017-11-11T06:39:10.221Z,989.4
2017-11-11T06:40:10.872Z,989.4
2017-11-11T06:41:11.526Z,989.4
2017-11-11T06:42:12.174Z,989.4
2017-11-11T06:43:12.826Z,989.4
2017-11-11T06:44:13.514Z,989.5
2017-11-11T06:45:14.165Z,989.5
2017-11-11T06:46:14.818Z,989.5
2017-11-11T06:47:15.471Z,989.5
2017-11-11T06:48:16.122Z,989.5
2017-11-11T06:49:16.774Z,989.5
2017-11-11T06:50:17.426Z,989.4
2017-11-11T06:51:18.083Z,989.5
2017-11-11T06:52:18.733Z,989.4
2017-11-11T06:53:19.385Z,989.4
2017-11-11T06:54:20.038Z,989.4
2017-11-11T06:55:20.691Z,989.4
2017-11-11T06:56:21.346Z,989.4
2017-11-11T06:57:21.996Z,989.4
2017-11-11T06:58:22.650Z,989.3
2017-11-11T06:59:23.301Z,989.4
2017-11-11T07:00:23.954Z,989.4
2017-11-11T07:01:24.608Z,989.2
2017-11-11T07:02:25.261Z,989.3
2017-11-11T07:03:25.913Z,989.4
2017-11-11T07:04:26.566Z,989.3
2017-11-11T07:05:27.218Z,989.2
2017-11-11T07:06:27.872Z,989.3
2017-11-11T07:07:28.524Z,989.2
2017-11-11T07:08:29.178Z,989.2
2017-11-11T07:09:29.830Z,989.3
2017-11-11T07:10:30.521Z,989.3
2017-11-11T07:11:31.173Z,989.3
2017-11-11T07:12:31.827Z,989.2
2017-11-11T07:13:32.479Z,989.2
2017-11-11T07:14:33.135Z,989.2
2017-11-11T07:15:33.790Z,989.3
2017-11-11T07:16:34.446Z,989.2
2017-11-11T07:17:35.097Z,989.2
2017-11-11T07:18:35.752Z,989.2
2017-11-11T07:19:36.443Z,989.2
2017-11-11T07:20:37.099Z,989.2
2017-11-11T07:21:37.753Z,989.3
2017-11-11T07:22:38.407Z,989.3
2017-11-11T07:23:39.096Z,989.2
2017-11-11T07:24:39.788Z,989.2
2017-11-11T07:25:40.445Z,989.2
2017-11-11T07:26:41.097Z,989.2
2017-11-11T07:27:41.750Z,989.2
2017-11-11T07:28:42.407Z,989.2
2017-11-11T07:29:43.064Z,989.1
2017-11-11T07:30:43.717Z,989.2
2017-11-11T07:31:44.370Z,989.2
2017-11-11T07:32:45.024Z,989.2
2017-11-11T07:33:45.677Z,989.2
2017-11-11T07:34:46.332Z,989.1
2017-11-11T07:35:46.987Z,989.1
2017-11-11T07:36:47.641Z,989.1
2017-11-11T07:37:48.299Z,989.1
2017-11-11T07:38:48.951Z,989.0
2017-11-11T07:39:49.607Z,989.0
2017-11-11T07:40:50.263Z,989.0
2017-11-11T07:41:50.916Z,989.0
2017-11-11T07:42:51.572Z,989.0
2017-11-11T07:43:52.225Z,989.0
2017-11-11T07:44:52.882Z,989.0
2017-11-11T07:45:53.533Z,989.0
2017-11-11T07:46:54.229Z,989.0
2017-11-11T07:47:54.877Z,988.9
2017-11-11T07:48:55.532Z,988.9
2017-11-11T07:49:56.189Z,989.0
2017-11-11T07:50:56.845Z,989.0
2017-11-11T07:51:57.496Z,989.0
2017-11-11T07:52:58.148Z,988.9
2017-11-11T07:53:58.802Z,988.9
2017-11-11T07:54:59.462Z,989.0
2017-11-11T07:56:00.111Z,989.0
2017-11-11T07:57:00.767Z,989.0
2017-11-11T07:58:01.430Z,988.9
2017-11-11T07:59:02.077Z,989.0
2017-11-11T08:00:02.730Z,989.0
2017-11-11T08:01:03.386Z,989.0
2017-11-11T08:02:04.042Z,989.0
2017-11-11T08:03:04.696Z,989.0
2017-11-11T08:04:05.350Z,989.0
2017-11-11T08:05:06.005Z,989.0
2017-11-11T08:06:06.659Z,989.0
2017-11-11T08:07:07.316Z,988.9
2017-11-11T08:08:07.970Z,988.9
2017-11-11T08:09:08.624Z,989.0
2017-11-11T08:10:09.280Z,989.0
2017-11-11T08:11:09.935Z,988.9
2017-11-11T08:12:10.591Z,989.0
2017-11-11T08:13:11.249Z,988.9
2017-11-11T08:14:11.907Z,988.9
2017-11-11T08:15:12.558Z,988.9
2017-11-11T08:16:13.223Z,988.8
2017-11-11T08:17:13.907Z,988.8
2017-11-11T08:18:14.597Z,988.9
2017-11-11T08:19:15.251Z,988.8
2017-11-11T08:20:15.906Z,988.8
2017-11-11T08:21:16.561Z,988.8
2017-11-11T08:22:17.216Z,988.8
2017-11-11T08:23:17.881Z,988.8
2017-11-11T08:24:18.564Z,988.8
2017-11-11T08:25:19.220Z,988.7
2017-11-11T08:26:19.877Z,988.8
2017-11-11T08:27:20.534Z,988.7
2017-11-11T08:28:21.198Z,988.8
2017-11-11T08:29:21.883Z,988.8
2017-11-11T08:30:22.539Z,988.8
2017-11-11T08:31:23.195Z,988.8
2017-11-11T08:32:23.852Z,988.8
2017-11-11T08:33:24.510Z,988.7
2017-11-11T08:34:25.167Z,988.7
2017-11-11T08:35:25.858Z,988.7
2017-11-11T08:36:26.513Z,988.7
2017-11-11T08:37:27.169Z,988.7
2017-11-11T08:38:27.828Z,988.7
2017-11-11T08:39:28.520Z,988.6
2017-11-11T08:40:29.176Z,988.6
2017-11-11T08:41:29.832Z,988.5
2017-11-11T08:42:30.513Z,988.5
2017-11-11T08:43:31.146Z,988.5
2017-11-11T08:44:31.841Z,988.5
2017-11-11T08:45:32.497Z,988.5
2017-11-11T08:46:33.155Z,988.5
2017-11-11T08:47:33.810Z,988.4
2017-11-11T08:48:34.464Z,988.4
2017-11-11T08:49:35.123Z,988.5
2017-11-11T08:50:35.778Z,988.4
2017-11-11T08:51:36.433Z,988.3
2017-11-11T08:52:37.090Z,988.3
2017-11-11T08:53:37.745Z,988.3
2017-11-11T08:54:38.403Z,988.3
2017-11-11T08:55:39.060Z,988.3
2017-11-11T08:56:39.717Z,988.3
2017-11-11T08:57:40.373Z,988.3
2017-11-11T08:58:41.029Z,988.3
2017-11-11T08:59:41.685Z,988.3
2017-11-11T09:00:42.343Z,988.3
2017-11-11T09:01:43.001Z,988.3
2017-11-11T09:02:43.657Z,988.3
2017-11-11T09:03:44.313Z,988.2
2017-11-11T09:04:44.970Z,988.2
2017-11-11T09:05:45.626Z,988.2
2017-11-11T09:06:46.283Z,988.2
2017-11-11T09:07:46.940Z,988.1
2017-11-11T09:08:47.596Z,988.3
2017-11-11T09:09:48.254Z,988.2
2017-11-11T09:10:48.910Z,988.1
2017-11-11T09:11:49.565Z,988.1
2017-11-11T09:12:50.224Z,988.1
2017-11-11T09:13:50.881Z,988.1
2017-11-11T09:14:51.537Z,988.1
2017-11-11T09:15:52.192Z,988.1
2017-11-11T09:16:52.850Z,988.1
2017-11-11T09:17:53.506Z,988.0
2017-11-11T09:18:54.163Z,988.0
2017-11-11T09:19:54.823Z,987.9
2017-11-11T09:20:55.478Z,988.0
2017-11-11T09:21:56.135Z,988.0
2017-11-11T09:22:56.792Z,988.2
2017-11-11T09:23:57.448Z,988.1
2017-11-11T09:24:58.106Z,988.1
2017-11-11T09:25:58.762Z,988.0
2017-11-11T09:26:59.418Z,988.1
2017-11-11T09:28:00.074Z,988.1
2017-11-11T09:29:00.732Z,988.0
2017-11-11T09:30:01.426Z,988.0
2017-11-11T09:31:02.084Z,988.1
2017-11-11T09:32:02.744Z,988.0
2017-11-11T09:33:03.400Z,988.0
2017-11-11T09:34:04.055Z,988.0
2017-11-11T09:35:04.715Z,988.1
2017-11-11T09:36:05.387Z,988.2
2017-11-11T09:37:06.028Z,988.1
2017-11-11T09:38:06.686Z,988.1
2017-11-11T09:39:07.343Z,988.2
2017-11-11T09:40:07.997Z,988.2
2017-11-11T09:41:08.654Z,988.3
2017-11-11T09:42:09.311Z,988.1
2017-11-11T09:43:09.968Z,988.1
2017-11-11T09:44:10.626Z,988.1
2017-11-11T09:45:11.282Z,988.1
2017-11-11T09:46:11.940Z,988.1
2017-11-11T09:47:12.599Z,988.1
2017-11-11T09:48:13.256Z,988.0
2017-11-11T09:49:13.914Z,988.1
2017-11-11T09:50:14.572Z,988.1
2017-11-11T09:51:15.228Z,988.0
2017-11-11T09:52:15.885Z,988.0
2017-11-11T09:53:16.547Z,988.0
2017-11-11T09:54:17.197Z,988.0
2017-11-11T09:55:17.857Z,988.0
2017-11-11T09:56:18.513Z,987.9
2017-11-11T09:57:19.170Z,987.9
2017-11-11T09:58:19.827Z,987.8
2017-11-11T09:59:20.491Z,987.8
2017-11-11T10:00:21.143Z,987.9
2017-11-11T10:01:21.800Z,987.9
2017-11-11T10:02:22.459Z,987.8
2017-11-11T10:03:23.117Z,987.8
2017-11-11T10:04:23.779Z,987.9
2017-11-11T10:05:24.432Z,987.8
2017-11-11T10:06:25.089Z,987.8
2017-11-11T10:07:25.746Z,987.8
2017-11-11T10:08:26.406Z,987.7
2017-11-11T10:09:27.065Z,987.8
2017-11-11T10:10:27.722Z,987.8
2017-11-11T10:11:28.378Z,987.8
2017-11-11T10:12:29.035Z,987.7
2017-11-11T10:13:29.694Z,987.8
2017-11-11T10:14:30.356Z,987.7
2017-11-11T10:15:31.013Z,987.8
2017-11-11T10:16:31.672Z,987.8
2017-11-11T10:17:32.331Z,987.8
2017-11-11T10:18:32.994Z,987.7
2017-11-11T10:19:33.649Z,987.8
2017-11-11T10:20:34.310Z,987.7
2017-11-11T10:21:34.968Z,987.6
2017-11-11T10:22:35.664Z,987.7
2017-11-11T10:23:36.323Z,987.7
2017-11-11T10:24:36.984Z,987.7
2017-11-11T10:25:37.638Z,987.6
2017-11-11T10:26:38.296Z,987.6
2017-11-11T10:27:38.954Z,987.6
2017-11-11T10:28:39.613Z,987.6
2017-11-11T10:29:40.271Z,987.6
2017-11-11T10:30:40.929Z,987.5
2017-11-11T10:31:41.585Z,987.5
2017-11-11T10:32:42.243Z,987.7
2017-11-11T10:33:42.898Z,987.5
2017-11-11T10:34:43.559Z,987.6
2017-11-11T10:35:44.217Z,987.5
2017-11-11T10:36:44.874Z,987.6
2017-11-11T10:37:45.531Z,987.5
2017-11-11T10:38:46.189Z,987.5
2017-11-11T10:39:46.896Z,987.5
2017-11-11T10:40:47.543Z,987.5
2017-11-11T10:41:48.199Z,987.4
2017-11-11T10:42:48.857Z,987.5
2017-11-11T10:43:49.511Z,987.5
2017-11-11T10:44:50.166Z,987.4
2017-11-11T10:45:50.823Z,987.4
2017-11-11T10:46:51.486Z,987.4
2017-11-11T10:47:52.174Z,987.5
2017-11-11T10:48:52.829Z,987.5
2017-11-11T10:49:53.486Z,987.3
2017-11-11T10:50:54.143Z,987.4
2017-11-11T10:51:54.801Z,987.4
2017-11-11T10:52:55.492Z,987.4
2017-11-11T10:53:56.150Z,987.3
2017-11-11T10:54:56.811Z,987.4
2017-11-11T10:55:57.466Z,987.3
2017-11-11T10:56:58.123Z,987.2
2017-11-11T10:57:58.778Z,987.3
2017-11-11T10:58:59.433Z,987.4
2017-11-11T11:00:00.099Z,987.2
2017-11-11T11:01:00.748Z,987.1
2017-11-11T11:02:01.408Z,987.1
2017-11-11T11:03:02.073Z,987.2
2017-11-11T11:04:02.730Z,987.1
2017-11-11T11:05:03.380Z,987.1
2017-11-11T11:06:04.038Z,987.1
2017-11-11T11:07:04.693Z,987.1
2017-11-11T11:08:05.352Z,987.1
2017-11-11T11:09:06.013Z,987.1
2017-11-11T11:10:06.704Z,987.1
2017-11-11T11:11:07.362Z,987.1
2017-11-11T11:12:08.018Z,987.1
2017-11-11T11:13:08.679Z,987.0
2017-11-11T11:14:09.369Z,987.1
2017-11-11T11:15:10.025Z,987.1
2017-11-11T11:16:10.682Z,987.1
2017-11-11T11:17:11.337Z,987.0
2017-11-11T11:18:11.995Z,987.1
2017-11-11T11:19:12.650Z,987.0
2017-11-11T11:20:13.307Z,987.1
2017-11-11T11:21:13.965Z,987.1
2017-11-11T11:22:14.623Z,987.0
2017-11-11T11:23:15.278Z,987.0
2017-11-11T11:24:15.938Z,986.8
2017-11-11T11:25:16.597Z,986.9
2017-11-11T11:26:17.256Z,986.8
2017-11-11T11:27:17.909Z,986.8
2017-11-11T11:28:18.565Z,986.8
2017-11-11T11:29:19.222Z,986.8
2017-11-11T11:30:19.881Z,986.8
2017-11-11T11:31:20.541Z,986.8
2017-11-11T11:32:21.197Z,986.7
2017-11-11T11:33:21.853Z,986.7
2017-11-11T11:34:22.511Z,986.7
2017-11-11T11:35:23.167Z,986.6
2017-11-11T11:36:23.825Z,986.7
2017-11-11T11:37:24.484Z,986.7
2017-11-11T11:38:25.142Z,986.6
2017-11-11T11:39:25.834Z,986.6
2017-11-11T11:40:26.490Z,986.6
2017-11-11T11:41:27.149Z,986.6
2017-11-11T11:42:27.807Z,986.6
2017-11-11T11:43:28.463Z,986.6
2017-11-11T11:44:29.118Z,986.6
2017-11-11T11:45:29.777Z,986.6
2017-11-11T11:46:30.433Z,986.5
2017-11-11T11:47:31.091Z,986.5
2017-11-11T11:48:31.749Z,986.5
2017-11-11T11:49:32.406Z,986.5
2017-11-11T11:50:33.062Z,986.5
2017-11-11T11:51:33.719Z,986.4
2017-11-11T11:52:34.378Z,986.5
2017-11-11T11:53:35.035Z,986.5
2017-11-11T11:54:35.699Z,986.4
2017-11-11T11:55:36.353Z,986.4
2017-11-11T11:56:37.012Z,986.3
2017-11-11T11:57:37.703Z,986.3
2017-11-11T11:58:38.367Z,986.2
2017-11-11T11:59:39.020Z,986.4
2017-11-11T12:00:39.678Z,986.3
2017-11-11T12:01:40.334Z,986.2
2017-11-11T12:02:41.028Z,986.2
2017-11-11T12:03:41.692Z,986.2
2017-11-11T12:04:42.343Z,986.1
2017-11-11T12:05:43.014Z,986.1
2017-11-11T12:06:43.659Z,986.0
2017-11-11T12:07:44.316Z,986.1
2017-11-11T12:08:45.010Z,986.0
2017-11-11T12:09:45.674Z,986.0
2017-11-11T12:10:46.327Z,985.9
2017-11-11T12:11:46.989Z,985.9
2017-11-11T12:12:47.649Z,986.0
2017-11-11T12:13:48.302Z,985.9
2017-11-11T12:14:48.960Z,986.0
2017-11-11T12:15:49.617Z,985.9
2017-11-11T12:16:50.274Z,986.0
2017-11-11T12:17:50.933Z,986.0
2017-11-11T12:18:51.591Z,985.9
2017-11-11T12:19:52.255Z,986.0
2017-11-11T12:20:52.905Z,986.1
2017-11-11T12:21:53.561Z,986.0
2017-11-11T12:22:54.222Z,985.9
2017-11-11T12:23:54.886Z,985.9
2017-11-11T12:24:55.544Z,985.9
2017-11-11T12:25:56.203Z,985.9
2017-11-11T12:26:56.860Z,985.9
2017-11-11T12:27:57.554Z,985.8
2017-11-11T12:28:58.209Z,985.9
2017-11-11T12:29:58.866Z,985.7
2017-11-11T12:30:59.524Z,985.8
2017-11-11T12:32:00.180Z,985.7
2017-11-11T12:33:00.837Z,985.8
2017-11-11T12:34:01.493Z,985.7
2017-11-11T12:35:02.151Z,985.7
2017-11-11T12:36:02.808Z,985.6
2017-11-11T12:37:03.463Z,985.7
2017-11-11T12:38:04.119Z,985.7
2017-11-11T12:39:04.774Z,985.6
2017-11-11T12:40:05.430Z,985.6
2017-11-11T12:41:06.123Z,985.7
2017-11-11T12:42:06.778Z,985.6
2017-11-11T12:43:07.435Z,985.6
2017-11-11T12:44:08.090Z,985.6
2017-11-11T12:45:08.746Z,985.6
2017-11-11T12:46:09.403Z,985.5
2017-11-11T12:47:10.058Z,985.5
2017-11-11T12:48:10.715Z,985.5
2017-11-11T12:49:11.370Z,985.5
2017-11-11T12:50:12.026Z,985.6
2017-11-11T12:51:12.683Z,985.5
2017-11-11T12:52:13.338Z,985.5
2017-11-11T12:53:13.993Z,985.6
2017-11-11T12:54:14.651Z,985.5
2017-11-11T12:55:15.303Z,985.5
2017-11-11T12:56:15.999Z,985.5
2017-11-11T12:57:16.654Z,985.5
2017-11-11T12:58:17.309Z,985.5
2017-11-11T12:59:17.965Z,985.5
2017-11-11T13:00:18.619Z,985.5
2017-11-11T13:01:19.285Z,985.5